createdAt,value
2017-08-23T00:00:03.465Z,16.20
2017-08-23T00:02:31.015Z,16.10
2017-08-23T00:04:59.115Z,16.10
2017-08-23T00:07:27.219Z,16.00
2017-08-23T00:09:55.300Z,16.00
2017-08-23T00:12:24.167Z,16.00
2017-08-23T00:14:52.247Z,16.00
2017-08-23T00:17:20.803Z,16.00
2017-08-23T00:19:48.989Z,16.00
2017-08-23T00:22:17.571Z,19.00
2017-08-23T00:24:46.146Z,15.90
2017-08-23T00:27:14.232Z,15.90
2017-08-23T00:29:42.404Z,15.90
2017-08-23T00:32:10.571Z,15.90
2017-08-23T00:34:38.744Z,15.90
2017-08-23T00:37:07.331Z,15.90
2017-08-23T00:39:35.504Z,15.90
2017-08-23T00:42:03.685Z,15.80
2017-08-23T00:44:31.808Z,15.80
2017-08-23T00:46:59.923Z,15.70
2017-08-23T00:49:28.095Z,15.70
2017-08-23T00:51:56.377Z,15.70
2017-08-23T00:54:24.954Z,15.60
2017-08-23T00:56:53.131Z,15.60
2017-08-23T00:59:21.971Z,15.60
2017-08-23T01:01:50.108Z,15.60
2017-08-23T01:04:18.211Z,15.60
2017-08-23T01:06:46.683Z,15.50
2017-08-23T01:09:15.551Z,15.50
2017-08-23T01:11:43.635Z,15.50
2017-08-23T01:14:12.135Z,15.60
2017-08-23T01:16:40.219Z,15.60
2017-08-23T01:19:10.140Z,15.60
2017-08-23T01:21:38.271Z,15.50
2017-08-23T01:24:06.747Z,15.50
2017-08-23T01:26:34.831Z,15.50
2017-08-23T01:29:03.335Z,15.40
2017-08-23T01:31:31.411Z,15.40
2017-08-23T01:33:59.491Z,15.50
2017-08-23T01:36:27.603Z,15.60
2017-08-23T01:38:55.669Z,15.60
2017-08-23T01:41:23.760Z,15.60
2017-08-23T01:43:51.883Z,15.60
2017-08-23T01:46:20.726Z,15.60
2017-08-23T01:48:48.807Z,15.60
2017-08-23T01:51:16.907Z,15.50
2017-08-23T01:53:45.025Z,15.40
2017-08-23T01:56:13.199Z,15.50
2017-08-23T01:58:41.379Z,15.40
2017-08-23T02:01:09.546Z,15.40
2017-08-23T02:03:37.722Z,15.40
2017-08-23T02:06:05.810Z,15.40
2017-08-23T02:08:33.966Z,15.40
2017-08-23T02:11:02.142Z,15.30
2017-08-23T02:13:30.218Z,15.30
2017-08-23T02:15:58.330Z,15.30
2017-08-23T02:18:26.461Z,15.30
2017-08-23T02:20:54.635Z,15.30
2017-08-23T02:23:22.810Z,15.20
2017-08-23T02:25:50.986Z,15.30
2017-08-23T02:28:19.154Z,15.30
2017-08-23T02:30:47.333Z,15.20
2017-08-23T02:33:15.507Z,15.30
2017-08-23T02:35:43.584Z,15.20
2017-08-23T02:38:11.687Z,15.20
2017-08-23T02:40:39.829Z,15.20
2017-08-23T02:43:08.004Z,15.20
2017-08-23T02:45:36.178Z,15.20
2017-08-23T02:48:04.346Z,15.10
2017-08-23T02:50:32.523Z,15.10
2017-08-23T02:53:00.722Z,15.00
2017-08-23T02:55:28.834Z,15.00
2017-08-23T02:57:56.915Z,15.00
2017-08-23T03:00:24.989Z,15.00
2017-08-23T03:02:53.479Z,15.00
2017-08-23T03:05:21.558Z,15.00
2017-08-23T03:07:49.667Z,15.00
2017-08-23T03:10:17.742Z,15.00
2017-08-23T03:12:45.823Z,15.00
2017-08-23T03:15:14.679Z,14.90
2017-08-23T03:17:42.745Z,15.00
2017-08-23T03:20:10.913Z,15.00
2017-08-23T03:22:39.094Z,15.00
2017-08-23T03:25:07.225Z,15.30
2017-08-23T03:27:35.338Z,15.40
2017-08-23T03:30:03.436Z,15.40
2017-08-23T03:32:31.586Z,15.50
2017-08-23T03:34:59.766Z,15.50
2017-08-23T03:37:28.351Z,15.60
2017-08-23T03:39:56.522Z,15.70
2017-08-23T03:42:24.694Z,15.70
2017-08-23T03:44:52.866Z,15.70
2017-08-23T03:47:21.458Z,15.70
2017-08-23T03:49:49.619Z,15.70
2017-08-23T03:52:17.723Z,15.70
2017-08-23T03:54:45.875Z,15.60
2017-08-23T03:57:14.046Z,15.50
2017-08-23T03:59:42.222Z,15.40
2017-08-23T04:02:10.803Z,15.30
2017-08-23T04:04:38.878Z,15.30
2017-08-23T04:07:07.050Z,15.20
2017-08-23T04:09:35.529Z,15.10
2017-08-23T04:12:03.706Z,15.10
2017-08-23T04:14:31.806Z,14.80
2017-08-23T04:16:59.886Z,14.70
2017-08-23T04:19:27.973Z,14.70
2017-08-23T04:21:56.111Z,14.70
2017-08-23T04:24:24.186Z,14.70
2017-08-23T04:26:52.267Z,14.70
2017-08-23T04:29:20.766Z,14.60
2017-08-23T04:31:49.230Z,14.60
2017-08-23T04:34:17.314Z,14.60
2017-08-23T04:36:45.814Z,14.70
2017-08-23T04:39:13.895Z,14.60
2017-08-23T04:41:42.391Z,14.60
2017-08-23T04:44:10.469Z,14.60
2017-08-23T04:46:38.657Z,14.60
2017-08-23T04:49:06.734Z,14.60
2017-08-23T04:51:34.902Z,14.70
2017-08-23T04:54:03.078Z,14.60
2017-08-23T04:56:31.154Z,14.70
2017-08-23T04:58:59.257Z,14.80
2017-08-23T05:01:28.114Z,14.90
2017-08-23T05:03:56.283Z,14.90
2017-08-23T05:06:24.870Z,15.00
2017-08-23T05:08:53.047Z,15.00
2017-08-23T05:11:21.143Z,15.00
2017-08-23T05:13:49.298Z,15.00
2017-08-23T05:16:17.479Z,15.10
2017-08-23T05:18:45.599Z,15.10
2017-08-23T05:21:13.679Z,15.20
2017-08-23T05:23:41.745Z,15.50
2017-08-23T05:26:09.844Z,15.50
2017-08-23T05:28:37.926Z,15.70
2017-08-23T05:31:06.038Z,15.70
2017-08-23T05:33:34.574Z,15.60
2017-08-23T05:36:02.757Z,15.70
2017-08-23T05:38:30.932Z,15.70
2017-08-23T05:40:59.105Z,15.70
2017-08-23T05:43:27.586Z,15.90
2017-08-23T05:45:55.670Z,15.90
2017-08-23T05:48:23.834Z,15.90
2017-08-23T05:50:52.413Z,15.80
2017-08-23T05:53:20.601Z,15.80
2017-08-23T05:55:48.766Z,15.70
2017-08-23T05:58:16.838Z,15.80
2017-08-23T06:00:45.703Z,15.90
2017-08-23T06:03:13.802Z,16.00
2017-08-23T06:05:41.974Z,16.20
2017-08-23T06:08:10.151Z,16.30
2017-08-23T06:10:38.323Z,16.30
2017-08-23T06:13:06.498Z,16.30
2017-08-23T06:15:34.990Z,16.40
2017-08-23T06:18:03.562Z,16.50
2017-08-23T06:20:31.742Z,16.50
2017-08-23T06:22:59.911Z,16.60
2017-08-23T06:25:28.082Z,16.50
2017-08-23T06:27:56.266Z,16.70
2017-08-23T06:30:24.434Z,16.80
2017-08-23T06:32:52.613Z,17.10
2017-08-23T06:35:21.461Z,17.20
2017-08-23T06:37:49.575Z,17.40
2017-08-23T06:40:17.745Z,17.40
2017-08-23T06:42:45.822Z,17.40
2017-08-23T06:45:14.391Z,17.50
2017-08-23T06:47:42.475Z,17.50
2017-08-23T06:50:10.674Z,17.50
2017-08-23T06:52:38.810Z,17.70
2017-08-23T06:55:06.996Z,17.70
2017-08-23T06:57:35.172Z,17.70
2017-08-23T07:00:03.261Z,17.70
2017-08-23T07:02:31.418Z,17.70
2017-08-23T07:04:59.590Z,17.70
2017-08-23T07:07:28.056Z,17.70
2017-08-23T07:09:56.350Z,17.80
2017-08-23T07:12:24.934Z,17.90
2017-08-23T07:14:53.012Z,18.10
2017-08-23T07:17:21.269Z,18.20
2017-08-23T07:19:49.311Z,18.30
2017-08-23T07:22:17.774Z,18.50
2017-08-23T07:24:45.872Z,18.60
2017-08-23T07:27:13.987Z,18.70
2017-08-23T07:29:42.150Z,18.80
2017-08-23T07:32:10.634Z,19.00
2017-08-23T07:34:38.812Z,18.90
2017-08-23T07:37:06.983Z,19.10
2017-08-23T07:39:35.165Z,19.20
2017-08-23T07:42:03.351Z,19.30
2017-08-23T07:44:31.506Z,19.40
2017-08-23T07:47:00.094Z,19.50
2017-08-23T07:49:28.277Z,19.60
2017-08-23T07:51:56.351Z,19.60
2017-08-23T07:54:24.510Z,19.90
2017-08-23T07:56:52.686Z,20.20
2017-08-23T07:59:20.862Z,20.30
2017-08-23T08:01:49.448Z,20.40
2017-08-23T08:04:18.041Z,20.50
2017-08-23T08:06:46.202Z,20.60
2017-08-23T08:09:14.786Z,20.60
2017-08-23T08:11:42.863Z,20.70
2017-08-23T08:14:11.030Z,20.90
2017-08-23T08:16:39.123Z,20.80
2017-08-23T08:19:07.283Z,21.20
2017-08-23T08:21:35.452Z,21.40
2017-08-23T08:24:03.737Z,21.40
2017-08-23T08:26:31.870Z,21.50
2017-08-23T08:28:59.942Z,21.50
2017-08-23T08:31:28.042Z,21.50
2017-08-23T08:33:56.226Z,21.80
2017-08-23T08:36:24.399Z,21.90
2017-08-23T08:38:52.600Z,22.10
2017-08-23T08:41:20.742Z,22.10
2017-08-23T08:43:49.215Z,22.00
2017-08-23T08:46:17.334Z,22.20
2017-08-23T08:48:45.446Z,22.50
2017-08-23T08:51:13.522Z,22.50
2017-08-23T08:53:41.642Z,22.70
2017-08-23T08:56:10.189Z,22.80
2017-08-23T08:58:39.010Z,22.90
2017-08-23T09:01:07.456Z,22.90
2017-08-23T09:03:35.578Z,23.20
2017-08-23T09:06:04.418Z,23.60
2017-08-23T09:08:32.502Z,23.60
2017-08-23T09:11:00.607Z,23.50
2017-08-23T09:13:28.707Z,23.60
2017-08-23T09:15:56.782Z,23.60
2017-08-23T09:18:25.283Z,23.90
2017-08-23T09:20:53.352Z,24.00
2017-08-23T09:23:21.454Z,24.00
2017-08-23T09:25:49.531Z,24.30
2017-08-23T09:28:17.626Z,24.30
2017-08-23T09:30:45.717Z,24.40
2017-08-23T09:33:13.830Z,24.40
2017-08-23T09:35:41.902Z,24.80
2017-08-23T09:38:09.987Z,24.80
2017-08-23T09:40:38.469Z,25.30
2017-08-23T09:43:06.537Z,25.50
2017-08-23T09:45:35.430Z,25.30
2017-08-23T09:48:03.491Z,25.30
2017-08-23T09:50:31.566Z,25.30
2017-08-23T09:52:59.675Z,25.70
2017-08-23T09:55:28.211Z,26.10
2017-08-23T09:57:56.259Z,26.20
2017-08-23T10:00:24.358Z,26.30
2017-08-23T10:02:52.439Z,26.70
2017-08-23T10:05:21.319Z,26.70
2017-08-23T10:07:49.393Z,26.70
2017-08-23T10:10:17.476Z,27.00
2017-08-23T10:12:45.578Z,26.90
2017-08-23T10:15:14.427Z,27.50
2017-08-23T10:17:42.491Z,27.50
2017-08-23T10:20:10.586Z,27.60
2017-08-23T10:22:38.657Z,27.60
2017-08-23T10:25:06.759Z,27.60
2017-08-23T10:27:34.834Z,27.60
2017-08-23T10:30:02.937Z,27.70
2017-08-23T10:32:31.020Z,27.70
2017-08-23T10:34:59.110Z,27.90
2017-08-23T10:37:27.189Z,28.00
2017-08-23T10:39:55.379Z,28.30
2017-08-23T10:42:23.457Z,28.40
2017-08-23T10:44:51.934Z,28.90
2017-08-23T10:47:20.031Z,29.00
2017-08-23T10:49:48.130Z,29.30
2017-08-23T10:52:16.215Z,29.30
2017-08-23T10:54:44.286Z,29.30
2017-08-23T10:57:12.875Z,29.60
2017-08-23T10:59:40.932Z,30.00
2017-08-23T11:02:09.006Z,30.20
2017-08-23T11:04:37.098Z,30.20
2017-08-23T11:07:05.190Z,30.40
2017-08-23T11:09:33.293Z,30.40
2017-08-23T11:12:01.367Z,30.40
2017-08-23T11:14:30.242Z,30.50
2017-08-23T11:16:58.322Z,30.60
2017-08-23T11:19:27.170Z,30.80
2017-08-23T11:21:55.255Z,30.70
2017-08-23T11:24:23.325Z,30.90
2017-08-23T11:26:51.438Z,30.80
2017-08-23T11:29:19.906Z,31.00
2017-08-23T11:31:47.986Z,30.90
2017-08-23T11:34:16.084Z,31.20
2017-08-23T11:36:44.158Z,31.20
2017-08-23T11:39:12.282Z,31.50
2017-08-23T11:41:40.354Z,31.50
2017-08-23T11:44:08.430Z,31.50
2017-08-23T11:46:36.551Z,31.30
2017-08-23T11:49:04.633Z,31.80
2017-08-23T11:51:32.718Z,31.80
2017-08-23T11:54:00.819Z,31.80
2017-08-23T11:56:28.984Z,32.20
2017-08-23T11:58:57.046Z,32.30
2017-08-23T12:01:25.122Z,32.90
2017-08-23T12:03:53.291Z,32.90
2017-08-23T12:06:21.301Z,32.90
2017-08-23T12:08:50.143Z,32.80
2017-08-23T12:11:18.238Z,32.70
2017-08-23T12:13:46.334Z,32.80
2017-08-23T12:16:14.430Z,32.70
2017-08-23T12:18:42.526Z,32.70
2017-08-23T12:21:10.605Z,32.70
2017-08-23T12:23:38.714Z,33.10
2017-08-23T12:26:07.554Z,33.70
2017-08-23T12:28:35.630Z,33.60
2017-08-23T12:31:03.727Z,33.90
2017-08-23T12:33:31.877Z,34.00
2017-08-23T12:35:59.911Z,34.10
2017-08-23T12:38:27.988Z,34.10
2017-08-23T12:40:56.073Z,33.70
2017-08-23T12:43:24.155Z,33.70
2017-08-23T12:45:52.249Z,34.30
2017-08-23T12:48:20.722Z,34.80
2017-08-23T12:50:48.826Z,34.60
2017-08-23T12:53:16.903Z,34.60
2017-08-23T12:55:44.979Z,34.50
2017-08-23T12:58:13.516Z,34.50
2017-08-23T13:00:41.566Z,34.60
2017-08-23T13:03:09.638Z,35.00
2017-08-23T13:05:38.244Z,35.10
2017-08-23T13:08:07.042Z,35.40
2017-08-23T13:10:35.110Z,35.20
2017-08-23T13:13:03.211Z,35.50
2017-08-23T13:15:31.702Z,35.40
2017-08-23T13:18:00.170Z,34.90
2017-08-23T13:20:28.658Z,35.00
2017-08-23T13:22:57.166Z,35.60
2017-08-23T13:25:25.685Z,36.10
2017-08-23T13:27:53.718Z,35.90
2017-08-23T13:30:21.829Z,35.30
2017-08-23T13:32:49.932Z,35.20
2017-08-23T13:35:18.005Z,35.40
2017-08-23T13:37:46.074Z,35.40
2017-08-23T13:40:14.181Z,35.50
2017-08-23T13:42:42.261Z,36.10
2017-08-23T13:45:10.342Z,36.10
2017-08-23T13:47:38.429Z,36.40
2017-08-23T13:50:06.510Z,36.40
2017-08-23T13:52:34.615Z,36.30
2017-08-23T13:55:02.690Z,35.70
2017-08-23T13:57:30.779Z,35.60
2017-08-23T13:59:58.866Z,35.90
2017-08-23T14:02:26.941Z,35.90
2017-08-23T14:04:55.052Z,35.80
2017-08-23T14:07:23.127Z,36.10
2017-08-23T14:09:51.206Z,36.40
2017-08-23T14:12:19.392Z,36.40
2017-08-23T14:14:47.434Z,36.90
2017-08-23T14:17:15.510Z,36.90
2017-08-23T14:19:43.619Z,36.90
2017-08-23T14:22:11.698Z,36.90
2017-08-23T14:24:39.773Z,36.80
2017-08-23T14:27:07.878Z,36.80
2017-08-23T14:29:35.946Z,36.20
2017-08-23T14:32:04.047Z,35.80
2017-08-23T14:34:32.143Z,36.10
2017-08-23T14:37:00.210Z,36.60
2017-08-23T14:39:28.319Z,36.60
2017-08-23T14:41:56.382Z,36.00
2017-08-23T14:44:24.482Z,35.60
2017-08-23T14:46:52.558Z,34.70
2017-08-23T14:49:21.042Z,34.80
2017-08-23T14:51:49.114Z,34.80
2017-08-23T14:54:17.222Z,36.00
2017-08-23T14:56:45.298Z,36.00
2017-08-23T14:59:13.441Z,36.30
2017-08-23T15:01:41.498Z,36.50
2017-08-23T15:04:09.573Z,36.70
2017-08-23T15:06:37.667Z,36.70
2017-08-23T15:09:05.738Z,36.60
2017-08-23T15:11:33.840Z,36.50
2017-08-23T15:14:01.938Z,36.30
2017-08-23T15:16:30.005Z,36.30
2017-08-23T15:18:58.079Z,36.40
2017-08-23T15:21:26.599Z,36.10
2017-08-23T15:23:54.665Z,36.10
2017-08-23T15:26:22.762Z,36.20
2017-08-23T15:28:50.839Z,36.10
2017-08-23T15:31:18.926Z,36.60
2017-08-23T15:33:46.994Z,36.30
2017-08-23T15:36:15.104Z,36.30
2017-08-23T15:38:43.169Z,36.00
2017-08-23T15:41:11.648Z,35.80
2017-08-23T15:43:40.516Z,35.40
2017-08-23T15:46:08.614Z,35.50
2017-08-23T15:48:36.690Z,35.00
2017-08-23T15:51:04.782Z,34.70
2017-08-23T15:53:32.881Z,34.30
2017-08-23T15:56:00.955Z,34.20
2017-08-23T15:58:29.042Z,34.00
2017-08-23T16:00:57.141Z,34.20
2017-08-23T16:03:25.991Z,34.10
2017-08-23T16:05:54.090Z,34.10
2017-08-23T16:08:22.165Z,33.50
2017-08-23T16:10:50.279Z,33.50
2017-08-23T16:13:18.384Z,33.30
2017-08-23T16:15:46.454Z,32.30
2017-08-23T16:18:14.559Z,32.00
2017-08-23T16:20:42.630Z,31.60
2017-08-23T16:23:11.495Z,31.40
2017-08-23T16:25:39.982Z,31.40
2017-08-23T16:28:08.062Z,31.70
2017-08-23T16:30:36.159Z,31.70
2017-08-23T16:33:04.250Z,31.70
2017-08-23T16:35:33.098Z,31.50
2017-08-23T16:38:01.202Z,31.30
2017-08-23T16:40:29.278Z,30.90
2017-08-23T16:42:58.151Z,30.40
2017-08-23T16:45:26.656Z,30.20
2017-08-23T16:47:54.727Z,30.20
2017-08-23T16:50:22.819Z,30.10
2017-08-23T16:52:50.913Z,30.20
2017-08-23T16:55:19.762Z,30.00
2017-08-23T16:57:47.863Z,29.80
2017-08-23T17:00:16.745Z,29.70
2017-08-23T17:02:44.826Z,29.30
2017-08-23T17:05:13.334Z,28.90
2017-08-23T17:07:41.410Z,28.50
2017-08-23T17:10:09.887Z,28.30
2017-08-23T17:12:37.982Z,28.00
2017-08-23T17:15:06.050Z,27.70
2017-08-23T17:17:34.562Z,27.50
2017-08-23T17:20:02.642Z,27.30
2017-08-23T17:22:30.718Z,27.20
2017-08-23T17:24:58.865Z,27.00
2017-08-23T17:27:26.942Z,26.80
2017-08-23T17:29:55.412Z,26.60
2017-08-23T17:32:23.519Z,26.30
2017-08-23T17:34:51.586Z,26.20
2017-08-23T17:37:20.074Z,26.00
2017-08-23T17:39:48.146Z,25.80
2017-08-23T17:42:16.246Z,25.70
2017-08-23T17:44:44.322Z,25.40
2017-08-23T17:47:12.857Z,25.20
2017-08-23T17:49:40.934Z,25.00
2017-08-23T17:52:09.039Z,24.80
2017-08-23T17:54:37.510Z,24.70
2017-08-23T17:57:06.007Z,24.60
2017-08-23T17:59:34.095Z,24.60
2017-08-23T18:02:02.200Z,24.40
2017-08-23T18:04:30.303Z,24.40
2017-08-23T18:06:58.808Z,24.00
2017-08-23T18:09:26.894Z,23.80
2017-08-23T18:11:55.008Z,23.80
2017-08-23T18:14:23.108Z,23.70
2017-08-23T18:16:51.204Z,23.70
2017-08-23T18:19:19.306Z,23.40
2017-08-23T18:21:47.412Z,23.20
2017-08-23T18:24:16.290Z,23.20
2017-08-23T18:26:44.377Z,23.00
2017-08-23T18:29:12.491Z,22.80
2017-08-23T18:31:41.343Z,22.70
2017-08-23T18:34:09.478Z,22.60
2017-08-23T18:36:37.526Z,22.50
2017-08-23T18:39:05.644Z,22.50
2017-08-23T18:41:34.147Z,22.40
2017-08-23T18:44:02.275Z,22.40
2017-08-23T18:46:30.380Z,22.40
2017-08-23T18:48:58.465Z,22.30
2017-08-23T18:51:26.563Z,22.20
2017-08-23T18:53:55.083Z,22.10
2017-08-23T18:56:24.903Z,22.00
2017-08-23T18:58:53.040Z,22.00
2017-08-23T19:01:22.760Z,22.00
2017-08-23T19:03:51.682Z,21.80
2017-08-23T19:06:19.757Z,21.70
2017-08-23T19:08:48.236Z,21.70
2017-08-23T19:11:16.339Z,21.60
2017-08-23T19:13:45.543Z,21.60
2017-08-23T19:16:14.778Z,21.40
2017-08-23T19:18:42.889Z,21.40
2017-08-23T19:21:12.170Z,21.60
2017-08-23T19:23:40.308Z,21.40
2017-08-23T19:26:08.784Z,21.30
2017-08-23T19:28:37.571Z,21.30
2017-08-23T19:31:06.777Z,21.10
2017-08-23T19:33:36.329Z,21.10
2017-08-23T19:36:04.819Z,21.00
2017-08-23T19:38:32.946Z,21.00
2017-08-23T19:41:01.054Z,21.00
2017-08-23T19:43:30.141Z,21.00
2017-08-23T19:45:59.001Z,20.90
2017-08-23T19:48:27.113Z,20.90
2017-08-23T19:50:55.207Z,20.90
2017-08-23T19:53:23.322Z,20.90
2017-08-23T19:55:51.426Z,20.90
2017-08-23T19:58:19.522Z,20.80
2017-08-23T20:00:47.640Z,20.70
2017-08-23T20:03:16.168Z,20.70
2017-08-23T20:05:44.288Z,20.60
2017-08-23T20:08:12.384Z,20.60
2017-08-23T20:10:40.507Z,20.60
2017-08-23T20:13:09.027Z,20.50
2017-08-23T20:15:37.567Z,20.50
2017-08-23T20:18:06.049Z,20.50
2017-08-23T20:20:34.155Z,20.50
2017-08-23T20:23:02.299Z,20.50
2017-08-23T20:25:30.385Z,20.50
2017-08-23T20:27:58.472Z,20.40
2017-08-23T20:30:26.568Z,20.40
2017-08-23T20:32:54.688Z,20.30
2017-08-23T20:35:22.768Z,20.20
2017-08-23T20:37:50.863Z,20.10
2017-08-23T20:40:18.972Z,20.10
2017-08-23T20:42:47.076Z,20.20
2017-08-23T20:45:15.172Z,20.20
2017-08-23T20:47:43.253Z,20.30
2017-08-23T20:50:11.360Z,20.40
2017-08-23T20:52:39.477Z,20.40
2017-08-23T20:55:07.567Z,20.50
2017-08-23T20:57:35.675Z,20.50
2017-08-23T21:00:03.759Z,20.60
2017-08-23T21:02:31.855Z,20.70
2017-08-23T21:04:59.958Z,20.80
2017-08-23T21:07:28.066Z,20.80
2017-08-23T21:09:56.185Z,20.90
2017-08-23T21:12:24.316Z,20.90
2017-08-23T21:14:52.403Z,20.80
2017-08-23T21:17:20.529Z,20.70
2017-08-23T21:19:48.678Z,20.70
2017-08-23T21:22:16.797Z,20.60
2017-08-23T21:24:45.635Z,20.70
2017-08-23T21:27:13.801Z,20.70
2017-08-23T21:29:41.890Z,20.70
2017-08-23T21:32:09.971Z,20.60
2017-08-23T21:34:38.084Z,20.60
2017-08-23T21:37:06.213Z,20.60
2017-08-23T21:39:34.352Z,20.50
2017-08-23T21:42:02.683Z,20.50
2017-08-23T21:44:31.031Z,20.60
2017-08-23T21:46:59.143Z,20.60
2017-08-23T21:49:27.284Z,20.50
2017-08-23T21:51:55.371Z,20.40
2017-08-23T21:54:23.483Z,20.40
2017-08-23T21:56:51.586Z,20.50
2017-08-23T21:59:20.486Z,20.50
2017-08-23T22:01:48.580Z,20.50
2017-08-23T22:04:16.692Z,20.50
2017-08-23T22:06:44.776Z,20.40
2017-08-23T22:09:13.655Z,20.40
2017-08-23T22:11:41.735Z,20.30
2017-08-23T22:14:09.816Z,20.20
2017-08-23T22:16:37.931Z,20.20
2017-08-23T22:19:06.419Z,20.20
2017-08-23T22:21:34.527Z,20.10
2017-08-23T22:24:02.642Z,20.10
2017-08-23T22:26:30.741Z,20.10
2017-08-23T22:28:58.877Z,20.10
2017-08-23T22:31:26.947Z,20.10
2017-08-23T22:33:55.065Z,20.10
2017-08-23T22:36:23.156Z,20.20
2017-08-23T22:38:51.263Z,20.20
2017-08-23T22:41:19.778Z,20.20
2017-08-23T22:43:47.872Z,20.10
2017-08-23T22:46:16.727Z,20.10
2017-08-23T22:48:45.208Z,20.00
2017-08-23T22:51:13.305Z,20.00
2017-08-23T22:53:41.451Z,20.10
2017-08-23T22:56:09.533Z,20.10
2017-08-23T22:58:37.615Z,20.10
2017-08-23T23:01:05.732Z,20.00
2017-08-23T23:03:33.823Z,20.00
2017-08-23T23:06:01.922Z,19.90
2017-08-23T23:08:30.012Z,20.00
2017-08-23T23:10:58.096Z,19.90
2017-08-23T23:13:26.195Z,19.90
2017-08-23T23:15:54.279Z,19.90
2017-08-23T23:18:22.395Z,19.90
2017-08-23T23:20:50.477Z,19.90
2017-08-23T23:23:18.602Z,19.90
2017-08-23T23:25:47.451Z,19.80
2017-08-23T23:28:15.939Z,19.80
2017-08-23T23:30:44.052Z,19.70
2017-08-23T23:33:12.131Z,19.60
2017-08-23T23:35:40.222Z,19.70
2017-08-23T23:38:08.339Z,19.70
2017-08-23T23:40:36.450Z,19.60
2017-08-23T23:43:04.550Z,19.60
2017-08-23T23:45:33.061Z,19.60
2017-08-23T23:48:01.153Z,19.60
2017-08-23T23:50:30.086Z,19.50
2017-08-23T23:52:58.200Z,19.50
2017-08-23T23:55:26.671Z,19.50
2017-08-23T23:57:54.776Z,19.60
